地図

経路データ

SID SEASON NUMBER BASIN SUBBASIN NAME ISO_TIME NATURE LAT LON WMO_WIND WMO_PRES WMO_AGENCY TRACK_TYPE DIST2LAND LANDFALL IFLAG USA_AGENCY USA_ATCF_ID USA_LAT USA_LON USA_RECORD USA_STATUS USA_WIND USA_PRES USA_SSHS USA_R34_NE USA_R34_SE USA_R34_SW USA_R34_NW USA_R50_NE USA_R50_SE USA_R50_SW USA_R50_NW USA_R64_NE USA_R64_SE USA_R64_SW USA_R64_NW USA_POCI USA_ROCI USA_RMW USA_EYE TOKYO_LAT TOKYO_LON TOKYO_GRADE TOKYO_WIND TOKYO_PRES TOKYO_R50_DIR TOKYO_R50_LONG TOKYO_R50_SHORT TOKYO_R30_DIR TOKYO_R30_LONG TOKYO_R30_SHORT TOKYO_LAND CMA_LAT CMA_LON CMA_CAT CMA_WIND CMA_PRES HKO_LAT HKO_LON HKO_CAT HKO_WIND HKO_PRES NEWDELHI_LAT NEWDELHI_LON NEWDELHI_GRADE NEWDELHI_WIND NEWDELHI_PRES NEWDELHI_CI NEWDELHI_DP NEWDELHI_POCI REUNION_LAT REUNION_LON REUNION_TYPE REUNION_WIND REUNION_PRES REUNION_TNUM REUNION_CI REUNION_RMW REUNION_R34_NE REUNION_R34_SE REUNION_R34_SW REUNION_R34_NW REUNION_R50_NE REUNION_R50_SE REUNION_R50_SW REUNION_R50_NW REUNION_R64_NE REUNION_R64_SE REUNION_R64_SW REUNION_R64_NW BOM_LAT BOM_LON BOM_TYPE BOM_WIND BOM_PRES BOM_TNUM BOM_CI BOM_RMW BOM_R34_NE BOM_R34_SE BOM_R34_SW BOM_R34_NW BOM_R50_NE BOM_R50_SE BOM_R50_SW BOM_R50_NW BOM_R64_NE BOM_R64_SE BOM_R64_SW BOM_R64_NW BOM_ROCI BOM_POCI BOM_EYE BOM_POS_METHOD BOM_PRES_METHOD NADI_LAT NADI_LON NADI_CAT NADI_WIND NADI_PRES WELLINGTON_LAT WELLINGTON_LON WELLINGTON_WIND WELLINGTON_PRES DS824_LAT DS824_LON DS824_STAGE DS824_WIND DS824_PRES TD9636_LAT TD9636_LON TD9636_STAGE TD9636_WIND TD9636_PRES TD9635_LAT TD9635_LON TD9635_WIND TD9635_PRES TD9635_ROCI NEUMANN_LAT NEUMANN_LON NEUMANN_CLASS NEUMANN_WIND NEUMANN_PRES MLC_LAT MLC_LON MLC_CLASS MLC_WIND MLC_PRES USA_GUST BOM_GUST BOM_GUST_PER REUNION_GUST REUNION_GUST_PER USA_SEAHGT USA_SEARAD_NE USA_SEARAD_SE USA_SEARAD_SW USA_SEARAD_NW STORM_SPEED STORM_DIR
1921345S15068 1922 70 SI MM NOT_NAMED 1921-12-11 00:00:00 TS -15.4000 68.4000 main 1248 1228 _________OO___ -1 -15.3000 68.4000 TC 25 -15.5000 68.4000 7 6 211
1921345S15068 1922 70 SI MM NOT_NAMED 1921-12-11 03:00:00 TS -15.6414 68.2465 main 1219 1208 _________PP___ -1 -15.6625 68.1602 TC 25 -15.6203 68.3328 7 5 209
1921345S15068 1922 70 SI MM NOT_NAMED 1921-12-11 06:00:00 TS -15.7896 68.1697 reunion main 1208 1184 _____O___OP___ -1 -15.3000 68.7000 99 9.90000 -16.0000 67.9000 TC 25 -15.7425 68.2625 7 4 213
1921345S15068 1922 70 SI MM NOT_NAMED 1921-12-11 09:00:00 TS -15.9479 68.0357 main 1184 1165 _____P___PP___ -1 -15.4028 68.5920 99 -16.3000 67.6074 TC 25 -15.8684 68.1859 7 4 220
1921345S15068 1922 70 SI MM NOT_NAMED 1921-12-11 12:00:00 TS -16.0836 67.9140 main 1165 1151 _____P___OO___ -1 -15.5064 68.4847 99 -16.6000 67.3000 TC 25 -16.0000 68.1000 7 4 219
1921345S15068 1922 70 SI MM NOT_NAMED 1921-12-11 15:00:00 TS -16.2311 67.7940 main 1151 1122 _____P___PP___ -1 -15.6119 68.3788 99 -16.9425 66.9999 TC 25 -16.1388 68.0031 7 4 218
1921345S15068 1922 70 SI MM NOT_NAMED 1921-12-11 18:00:00 TS -16.4351 67.6251 main 1122 1103 _____P___OP___ -1 -15.7202 68.2753 99 -17.3000 66.7000 TC 25 -16.2850 67.9000 7 5 218
1921345S15068 1922 70 SI MM NOT_NAMED 1921-12-11 21:00:00 TS -16.6453 67.4522 main 1103 1075 _____P___PP___ -1 -15.8322 68.1749 99 -17.6650 66.3850 TC 25 -16.4388 67.7969 7 5 218
1921345S15068 1922 70 SI MM NOT_NAMED 1921-12-12 00:00:00 TS -16.8496 67.2928 main 1075 1056 _____P___OO___ -1 -15.9489 68.0783 99 -18.0000 66.1000 TC 25 -16.6000 67.7000 7 5 216
1921345S15068 1922 70 SI MM NOT_NAMED 1921-12-12 03:00:00 TS -17.0321 67.1616 main 1056 1038 _____P___PP___ -1 -16.0712 67.9864 99 -18.2574 65.8848 TC 25 -16.7678 67.6137 7 4 213
1921345S15068 1922 70 SI MM NOT_NAMED 1921-12-12 06:00:00 TS -17.2142 67.0450 reunion main 1028 1010 _____O___OP___ -1 -16.2000 67.9000 99 9.90000 -18.5000 65.7000 TC 25 -16.9425 67.5350 7 4 210
1921345S15068 1922 70 SI MM NOT_NAMED 1921-12-12 09:00:00 TS -17.4165 66.9278 main 1010 993 _____P___PP___ -1 -16.3360 67.8197 99 -18.7925 65.5000 TC 25 -17.1209 67.4637 7 5 208
1921345S15068 1922 70 SI MM NOT_NAMED 1921-12-12 12:00:00 TS -17.6261 66.8151 main 993 976 _____P___OO___ -1 -16.4784 67.7452 99 -19.1000 65.3000 TC 25 -17.3000 67.4000 7 5 208
1921345S15068 1922 70 SI MM NOT_NAMED 1921-12-12 15:00:00 TS -17.8338 66.6975 main 976 959 _____P___PP___ -1 -16.6259 67.6763 99 -19.3925 65.0775 TC 25 -17.4831 67.3387 7 5 206
1921345S15068 1922 70 SI MM NOT_NAMED 1921-12-12 18:00:00 TS -18.0475 66.5991 main 959 939 _____P___OP___ -1 -16.7774 67.6124 99 -19.7000 64.9000 TC 25 -17.6650 67.2850 7 5 200
1921345S15068 1922 70 SI MM NOT_NAMED 1921-12-12 21:00:00 TS -18.2687 66.5299 main 939 934 _____P___PP___ -1 -16.9318 67.5532 99 -20.0349 64.7976 TC 25 -17.8394 67.2387 7 5 192
1921345S15068 1922 70 SI MM NOT_NAMED 1921-12-13 00:00:00 TS -18.4959 66.4995 main 934 929 _____P___OO___ -1 -17.0878 67.4984 99 -20.4000 64.8000 TC 25 -18.0000 67.2000 7 5 0
1921345S15068 1922 70 SI MM NOT_NAMED 1921-12-13 03:00:00 TS -18.7186 66.5040 main 929 924 _____P___PP___ -1 -17.2442 67.4474 99 -20.7925 64.9050 TC 25 -18.1191 67.1597 7 5 176
1921345S15068 1922 70 SI MM NOT_NAMED 1921-12-13 06:00:00 TS -18.9425 66.5425 reunion main 924 922 _____O___OP___ -1 -17.4000 67.4000 99 9.90000 -21.2000 65.1000 TC 25 -18.2275 67.1275 7 5 169
1921345S15068 1922 70 SI MM NOT_NAMED 1921-12-13 09:00:00 TS -19.1694 66.5963 main 928 927 _____P___PP___ -1 -17.5385 67.3399 99 -21.6226 65.3423 TC 25 -18.3472 67.1066 7 5 166
1921345S15068 1922 70 SI MM NOT_NAMED 1921-12-13 12:00:00 TS -19.3919 66.6608 main 936 933 _____P___OO___ -1 -17.6756 67.2824 99 -22.0000 65.6000 TC 25 -18.5000 67.1000 7 5 166
1921345S15068 1922 70 SI MM NOT_NAMED 1921-12-13 15:00:00 TS -19.6066 66.7119 main 933 933 _____P___PP___ -1 -17.8137 67.2294 99 -22.2799 65.8077 TC 25 -18.7262 67.0985 7 2 137
1921345S15068 1922 70 SI MM NOT_NAMED 1921-12-13 18:00:00 TS -19.5691 66.8347 main 943 943 _____P___OP___ -1 -17.9550 67.1829 99 -22.5000 66.0000 TC 25 -18.9850 67.1126 7 3 62
1921345S15068 1922 70 SI MM NOT_NAMED 1921-12-13 21:00:00 TS -19.4818 66.9555 main 965 965 _____P___PP___ -1 -18.1019 67.1448 99 -22.7026 66.1973 TC 25 -19.2512 67.1454 7 3 43
1921345S15068 1922 70 SI MM NOT_NAMED 1921-12-14 00:00:00 TS -19.3253 67.0742 main 979 979 _____P___OO___ -1 -18.2569 67.1169 99 -22.9000 66.4000 TC 25 -19.5000 67.2000 7 5 28
1921345S15068 1922 70 SI MM NOT_NAMED 1921-12-14 03:00:00 NR -19.0672 67.1897 main 992 992 _____P____P___ -1 -18.4221 67.1014 99 TC -19.7122 67.2780 7 2 39
1921345S15068 1922 70 SI MM NOT_NAMED 1921-12-14 06:00:00 NR -19.1540 67.2178 reunion main 991 991 _____O____P___ -1 -18.6000 67.1000 99 9.90000 -19.8926 67.3748 7 2 168
1921345S15068 1922 70 SI MM NOT_NAMED 1921-12-14 09:00:00 NR -19.2268 67.2370 main 991 989 _____P____P___ -1 -18.8143 67.1134 99 -20.0516 67.4842 7 1 0
1921345S15068 1922 70 SI MM NOT_NAMED 1921-12-14 12:00:00 NR -19.2747 67.2329 main 989 989 _____P____O___ -1 -19.0434 67.1411 99 -20.2000 67.6000 7 1 226
1921345S15068 1922 70 SI MM NOT_NAMED 1921-12-14 15:00:00 NR -19.2814 67.1812 main 989 986 _____P________ -1 -19.2814 67.1812 99 7 2 0
1921345S15068 1922 70 SI MM NOT_NAMED 1921-12-14 18:00:00 NR -19.5225 67.2318 main 986 985 _____P________ -1 -19.5225 67.2318 99 7 5 167
1921345S15068 1922 70 SI MM NOT_NAMED 1921-12-14 21:00:00 NR -19.7607 67.2910 main 993 992 _____P________ -1 -19.7607 67.2910 99 7 5 166
1921345S15068 1922 70 SI MM NOT_NAMED 1921-12-15 00:00:00 NR -19.9903 67.3567 main 1002 1001 _____P________ -1 -19.9903 67.3567 99 5 164
1921345S15068 1922 70 SI MM NOT_NAMED 1921-12-15 03:00:00 NR -20.2054 67.4271 main 1001 1000 _____P________ -1 -20.2054 67.4271 99 4 162
1921345S15068 1922 70 SI MM NOT_NAMED 1921-12-15 06:00:00 NR -20.4000 67.5000 reunion main 1011 1010 _____O________ -1 -20.4000 67.5000 99 9.90000 4 159
1921345S15068 1922 70 SI MM NOT_NAMED 1921-12-15 09:00:00 NR -20.5699 67.5738 main 1021 1021 _____P________ -1 -20.5699 67.5738 99 3 157
1921345S15068 1922 70 SI MM NOT_NAMED 1921-12-15 12:00:00 NR -20.7169 67.6481 main 1021 1021 _____P________ -1 -20.7169 67.6481 99 3 153
1921345S15068 1922 70 SI MM NOT_NAMED 1921-12-15 15:00:00 NR -20.8442 67.7228 main 1031 1031 _____P________ -1 -20.8442 67.7228 99 3 149
1921345S15068 1922 70 SI MM NOT_NAMED 1921-12-15 18:00:00 NR -20.9550 67.7978 main 1043 1043 _____P________ -1 -20.9550 67.7978 99 3 145
1921345S15068 1922 70 SI MM NOT_NAMED 1921-12-15 21:00:00 NR -21.0528 67.8730 main 1054 1054 _____P________ -1 -21.0528 67.8730 99 2 142
1921345S15068 1922 70 SI MM NOT_NAMED 1921-12-16 00:00:00 NR -21.1407 67.9485 main 1054 1054 _____P________ -1 -21.1407 67.9485 99 2 140
1921345S15068 1922 70 SI MM NOT_NAMED 1921-12-16 03:00:00 NR -21.2220 68.0242 main 1065 1065 _____P________ -1 -21.2220 68.0242 99 2 138
1921345S15068 1922 70 SI MM NOT_NAMED 1921-12-16 06:00:00 NR -21.3000 68.1000 reunion main 1076 _____O________ -1 -21.3000 68.1000 99 9.90000 2 138

IBTrACS Databaseについて

本データベースは、米国NOAAが公開する1842年以降の世界の熱帯低気圧のベストトラックデータアーカイブInternational Best Track Archive for Climate Stewardship (IBTrACS)を、ウェブで閲覧しやすい形式に変換したものです。

最終更新日:2021-11-26